createdAt,value
2023-01-17T00:02:24.270Z,26.00
2023-01-17T00:05:10.386Z,25.80
2023-01-17T00:07:56.509Z,25.20
2023-01-17T00:10:27.415Z,23.60
2023-01-17T00:13:00.164Z,23.00
2023-01-17T00:15:30.660Z,21.30
2023-01-17T00:17:59.209Z,21.20
2023-01-17T00:20:49.450Z,23.30
2023-01-17T00:23:40.913Z,22.10
2023-01-17T00:26:18.750Z,22.00
2023-01-17T00:28:48.213Z,20.40
2023-01-17T00:31:17.113Z,18.90
2023-01-17T00:33:45.066Z,23.40
2023-01-17T00:36:15.676Z,21.60
2023-01-17T00:38:43.549Z,24.70
2023-01-17T00:41:14.425Z,22.10
2023-01-17T00:44:00.493Z,22.90
2023-01-17T00:46:46.712Z,28.30
2023-01-17T00:49:32.780Z,29.60
2023-01-17T00:52:19.267Z,37.70
2023-01-17T00:55:05.346Z,36.80
2023-01-17T00:57:51.490Z,34.00
2023-01-17T01:00:38.174Z,26.90
2023-01-17T01:03:29.355Z,25.40
2023-01-17T01:06:16.079Z,24.10
2023-01-17T01:09:02.798Z,25.20
2023-01-17T01:11:48.837Z,26.30
2023-01-17T01:14:35.438Z,24.50
2023-01-17T01:17:22.671Z,24.20
2023-01-17T01:20:08.804Z,23.20
2023-01-17T01:22:55.060Z,25.10
2023-01-17T01:25:41.067Z,24.00
2023-01-17T01:28:30.627Z,24.50
2023-01-17T01:31:23.763Z,23.90
2023-01-17T01:33:52.616Z,25.60
2023-01-17T01:36:20.825Z,25.40
2023-01-17T01:38:49.586Z,26.60
2023-01-17T01:41:17.450Z,23.80
2023-01-17T01:43:54.307Z,24.40
2023-01-17T01:46:40.913Z,24.40
2023-01-17T01:49:20.706Z,24.60
2023-01-17T01:51:55.549Z,24.00
2023-01-17T01:54:33.220Z,24.70
2023-01-17T01:57:04.169Z,24.40
2023-01-17T01:59:33.510Z,24.90
2023-01-17T02:02:01.567Z,24.10
2023-01-17T02:04:29.306Z,25.80
2023-01-17T02:07:14.699Z,27.40
2023-01-17T02:09:42.573Z,24.10
2023-01-17T02:12:11.750Z,25.50
2023-01-17T02:14:39.734Z,27.10
2023-01-17T02:17:39.549Z,29.70
2023-01-17T02:20:44.869Z,31.30
2023-01-17T02:24:00.728Z,32.20
2023-01-17T02:26:59.713Z,33.50
2023-01-17T02:30:25.743Z,33.70
2023-01-17T02:33:03.357Z,34.90
2023-01-17T02:36:03.989Z,35.10
2023-01-17T02:39:09.989Z,33.50
2023-01-17T02:41:42.913Z,33.70
2023-01-17T02:44:16.345Z,32.60
2023-01-17T02:46:56.179Z,33.60
2023-01-17T02:49:29.514Z,30.90
2023-01-17T02:52:46.382Z,31.20
2023-01-17T02:55:35.222Z,28.50
2023-01-17T02:58:41.521Z,30.20
2023-01-17T03:01:18.068Z,31.50
2023-01-17T03:04:10.969Z,33.80
2023-01-17T03:06:47.496Z,39.70
2023-01-17T03:09:16.739Z,37.40
2023-01-17T03:11:44.973Z,33.40
2023-01-17T03:14:12.709Z,33.70
2023-01-17T03:16:41.051Z,35.90
2023-01-17T03:19:09.295Z,36.20
2023-01-17T03:21:37.009Z,35.00
2023-01-17T03:24:05.169Z,32.40
2023-01-17T03:26:32.970Z,35.50
2023-01-17T03:29:01.751Z,29.70
2023-01-17T03:31:29.417Z,30.30
2023-01-17T03:33:57.021Z,28.80
2023-01-17T03:36:24.662Z,28.50
2023-01-17T03:38:52.329Z,27.90
2023-01-17T03:41:19.932Z,25.60
2023-01-17T03:43:47.769Z,24.00
2023-01-17T03:46:28.151Z,23.50
2023-01-17T03:48:55.827Z,25.00
2023-01-17T03:51:23.683Z,25.40
2023-01-17T03:53:51.380Z,24.30
2023-01-17T03:56:19.393Z,24.00
2023-01-17T03:58:47.122Z,25.00
2023-01-17T04:01:15.015Z,23.20
2023-01-17T04:03:42.709Z,21.80
2023-01-17T04:06:10.354Z,20.40
2023-01-17T04:08:38.132Z,21.80
2023-01-17T04:11:05.762Z,21.10
2023-01-17T04:13:33.419Z,19.50
2023-01-17T04:16:01.073Z,18.90
2023-01-17T04:18:28.808Z,19.90
2023-01-17T04:20:56.563Z,19.60
2023-01-17T04:23:24.154Z,18.80
2023-01-17T04:25:51.757Z,18.90
2023-01-17T04:28:19.373Z,17.80
2023-01-17T04:30:47.131Z,17.30
2023-01-17T04:33:15.013Z,22.70
2023-01-17T04:35:42.716Z,21.50
2023-01-17T04:38:10.442Z,22.50
2023-01-17T04:40:38.186Z,23.00
2023-01-17T04:43:05.801Z,26.20
2023-01-17T04:45:33.424Z,27.90
2023-01-17T04:48:06.099Z,28.30
2023-01-17T04:50:33.860Z,32.00
2023-01-17T04:53:01.474Z,34.70
2023-01-17T04:55:29.334Z,26.90
2023-01-17T04:57:57.096Z,25.50
2023-01-17T05:00:25.469Z,15.60
2023-01-17T05:02:53.189Z,17.70
2023-01-17T05:05:21.144Z,21.50
2023-01-17T05:07:56.759Z,24.20
2023-01-17T05:10:25.565Z,30.50
2023-01-17T05:12:58.980Z,26.50
2023-01-17T05:15:27.321Z,26.20
2023-01-17T05:17:56.090Z,26.70
2023-01-17T05:20:26.646Z,27.40
2023-01-17T05:22:56.557Z,29.00
2023-01-17T05:25:27.641Z,29.40
2023-01-17T05:27:56.709Z,24.40
2023-01-17T05:30:24.271Z,21.50
2023-01-17T05:32:54.862Z,16.70
2023-01-17T05:35:29.492Z,14.60
2023-01-17T05:37:57.229Z,14.40
2023-01-17T05:40:28.729Z,14.60
2023-01-17T05:42:59.431Z,12.50
2023-01-17T05:45:35.671Z,12.50
2023-01-17T05:48:04.231Z,14.40
2023-01-17T05:50:36.091Z,15.30
2023-01-17T05:53:12.429Z,14.70
2023-01-17T05:55:41.463Z,14.60
2023-01-17T05:58:17.590Z,15.30
2023-01-17T06:00:46.329Z,15.40
2023-01-17T06:03:15.237Z,14.50
2023-01-17T06:05:44.227Z,11.50
2023-01-17T06:08:11.984Z,13.40
2023-01-17T06:10:39.671Z,12.50
2023-01-17T06:13:14.660Z,12.50
2023-01-17T06:15:42.486Z,13.40
2023-01-17T06:18:14.031Z,13.30
2023-01-17T06:20:42.479Z,12.30
2023-01-17T06:23:13.542Z,13.00
2023-01-17T06:25:46.193Z,13.00
2023-01-17T06:28:17.758Z,10.90
2023-01-17T06:30:46.242Z,10.50
2023-01-17T06:33:14.312Z,10.30
2023-01-17T06:35:50.891Z,10.00
2023-01-17T06:38:19.673Z,9.80
2023-01-17T06:40:48.081Z,10.80
2023-01-17T06:43:16.135Z,11.80
2023-01-17T06:45:43.939Z,11.70
2023-01-17T06:48:11.712Z,11.80
2023-01-17T06:50:43.351Z,11.80
2023-01-17T06:53:11.072Z,12.00
2023-01-17T06:55:39.673Z,12.30
2023-01-17T06:58:09.664Z,13.30
2023-01-17T07:00:40.353Z,14.20
2023-01-17T07:03:19.407Z,15.10
2023-01-17T07:05:48.397Z,15.60
2023-01-17T07:08:17.643Z,15.10
2023-01-17T07:10:47.410Z,14.60
2023-01-17T07:13:15.332Z,15.40
2023-01-17T07:15:43.361Z,15.00
2023-01-17T07:18:11.203Z,14.70
2023-01-17T07:20:39.264Z,15.80
2023-01-17T07:23:07.093Z,14.00
2023-01-17T07:25:34.944Z,13.30
2023-01-17T07:28:03.060Z,14.30
2023-01-17T07:30:30.803Z,13.80
2023-01-17T07:32:58.633Z,12.90
2023-01-17T07:35:27.423Z,13.80
2023-01-17T07:37:57.780Z,13.00
2023-01-17T07:40:26.426Z,11.50
2023-01-17T07:43:12.726Z,12.40
2023-01-17T07:45:49.941Z,12.90
2023-01-17T07:48:21.563Z,19.60
2023-01-17T07:50:57.426Z,18.30
2023-01-17T07:53:29.932Z,16.60
2023-01-17T07:56:06.977Z,19.40
2023-01-17T07:58:35.796Z,20.50
2023-01-17T08:01:13.776Z,24.50
2023-01-17T08:03:42.640Z,19.10
2023-01-17T08:06:25.514Z,12.80
2023-01-17T08:08:58.390Z,13.60
2023-01-17T08:11:26.321Z,14.20
2023-01-17T08:13:59.666Z,12.90
2023-01-17T08:16:29.056Z,11.40
2023-01-17T08:18:56.728Z,12.50
2023-01-17T08:21:24.688Z,12.60
2023-01-17T08:23:52.452Z,12.90
2023-01-17T08:26:21.589Z,22.90
2023-01-17T08:29:00.426Z,17.70
2023-01-17T08:31:32.951Z,16.70
2023-01-17T08:34:00.898Z,17.90
2023-01-17T08:36:30.631Z,19.00
2023-01-17T08:38:58.493Z,17.20
2023-01-17T08:41:27.223Z,19.50
2023-01-17T08:43:54.955Z,15.70
2023-01-17T08:46:22.786Z,17.30
2023-01-17T08:48:59.520Z,17.50
2023-01-17T08:51:28.105Z,23.50
2023-01-17T08:53:56.561Z,19.50
2023-01-17T08:56:25.518Z,19.70
2023-01-17T08:58:53.300Z,23.70
2023-01-17T09:01:21.292Z,32.00
2023-01-17T09:03:50.578Z,34.30
2023-01-17T09:06:18.302Z,27.70
2023-01-17T09:08:47.206Z,23.40
2023-01-17T09:11:17.370Z,23.50
2023-01-17T09:13:45.138Z,19.50
2023-01-17T09:16:13.004Z,19.80
2023-01-17T09:18:40.927Z,19.90
2023-01-17T09:21:15.783Z,20.50
2023-01-17T09:23:43.923Z,20.50
2023-01-17T09:26:26.032Z,24.50
2023-01-17T09:28:54.669Z,25.30
2023-01-17T09:31:23.899Z,26.30
2023-01-17T09:33:53.642Z,25.90
2023-01-17T09:36:23.434Z,23.30
2023-01-17T09:38:57.227Z,21.50
2023-01-17T09:41:36.963Z,23.70
2023-01-17T09:44:20.317Z,24.40
2023-01-17T09:46:51.695Z,22.30
2023-01-17T09:49:43.686Z,26.00
2023-01-17T09:52:20.320Z,22.30
2023-01-17T09:54:50.186Z,24.10
2023-01-17T09:57:58.624Z,22.60
2023-01-17T10:00:35.204Z,21.20
2023-01-17T10:03:49.035Z,15.30
2023-01-17T10:06:51.311Z,20.20
2023-01-17T10:09:45.662Z,29.00
2023-01-17T10:12:32.628Z,28.10
2023-01-17T10:15:23.852Z,21.30
2023-01-17T10:17:57.303Z,16.50
2023-01-17T10:20:52.132Z,16.80
2023-01-17T10:23:31.937Z,15.10
2023-01-17T10:26:21.743Z,15.80
2023-01-17T10:28:52.771Z,15.30
2023-01-17T10:31:27.272Z,14.40
2023-01-17T10:34:06.434Z,12.70
2023-01-17T10:36:46.211Z,11.40
2023-01-17T10:39:28.746Z,12.60
2023-01-17T10:42:06.065Z,10.90
2023-01-17T10:45:03.797Z,7.10
2023-01-17T10:47:37.153Z,7.30
2023-01-17T10:50:05.425Z,6.40
2023-01-17T10:53:15.861Z,6.40
2023-01-17T10:55:52.766Z,6.10
2023-01-17T10:58:20.958Z,6.60
2023-01-17T11:01:00.634Z,6.10
2023-01-17T11:03:28.795Z,6.50
2023-01-17T11:06:22.395Z,5.80
2023-01-17T11:08:58.670Z,6.00
2023-01-17T11:11:33.078Z,4.60
2023-01-17T11:14:15.264Z,5.10
2023-01-17T11:16:43.451Z,4.60
2023-01-17T11:19:29.905Z,6.00
2023-01-17T11:22:04.159Z,6.70
2023-01-17T11:24:38.254Z,7.70
2023-01-17T11:27:22.111Z,11.60
2023-01-17T11:30:06.622Z,17.50
2023-01-17T11:32:35.194Z,7.70
2023-01-17T11:35:25.071Z,6.50
2023-01-17T11:38:11.308Z,5.60
2023-01-17T11:40:48.698Z,5.60
2023-01-17T11:43:27.188Z,6.50
2023-01-17T11:46:17.189Z,7.70
2023-01-17T11:49:00.272Z,6.60
2023-01-17T11:51:55.604Z,10.90
2023-01-17T11:54:41.820Z,7.50
2023-01-17T11:57:32.456Z,8.40
2023-01-17T12:00:24.045Z,7.10
2023-01-17T12:03:50.232Z,8.10
2023-01-17T12:06:33.117Z,7.10
2023-01-17T12:09:29.986Z,6.80
2023-01-17T12:12:49.545Z,7.00
2023-01-17T12:15:59.435Z,8.40
2023-01-17T12:19:00.486Z,7.00
2023-01-17T12:22:04.608Z,9.00
2023-01-17T12:25:01.222Z,14.50
2023-01-17T12:27:42.640Z,9.30
2023-01-17T12:30:50.764Z,5.70
2023-01-17T12:33:50.561Z,7.50
2023-01-17T12:36:30.646Z,6.10
2023-01-17T12:39:18.659Z,6.90
2023-01-17T12:42:42.176Z,7.40
2023-01-17T12:45:20.816Z,8.00
2023-01-17T12:47:56.204Z,10.80
2023-01-17T12:51:05.319Z,9.40
2023-01-17T12:54:10.174Z,8.60
2023-01-17T12:56:52.034Z,11.10
2023-01-17T12:59:39.859Z,13.00
2023-01-17T13:02:58.489Z,13.80
2023-01-17T13:05:41.201Z,9.80
2023-01-17T13:08:38.261Z,14.20
2023-01-17T13:11:34.882Z,18.30
2023-01-17T13:14:08.347Z,11.00
2023-01-17T13:17:11.053Z,11.00
2023-01-17T13:20:31.311Z,8.60
2023-01-17T13:23:52.723Z,7.20
2023-01-17T13:26:33.511Z,7.20
2023-01-17T13:29:39.174Z,6.90
2023-01-17T13:33:01.256Z,7.00
2023-01-17T13:36:10.103Z,9.60
2023-01-17T13:39:07.465Z,12.20
2023-01-17T13:41:54.446Z,12.30
2023-01-17T13:44:27.025Z,12.50
2023-01-17T13:47:06.076Z,18.70
2023-01-17T13:49:50.951Z,11.40
2023-01-17T13:52:18.745Z,14.70
2023-01-17T13:54:49.510Z,19.70
2023-01-17T13:57:25.981Z,16.20
2023-01-17T13:59:57.130Z,17.60
2023-01-17T14:02:38.686Z,14.10
2023-01-17T14:05:29.714Z,31.90
2023-01-17T14:08:15.085Z,13.90
2023-01-17T14:11:04.982Z,9.20
2023-01-17T14:13:39.598Z,10.30
2023-01-17T14:16:29.817Z,12.80
2023-01-17T14:18:57.748Z,12.40
2023-01-17T14:21:31.685Z,11.00
2023-01-17T14:24:03.608Z,11.00
2023-01-17T14:29:42.159Z,8.10
2023-01-17T14:32:29.735Z,8.20
2023-01-17T14:34:58.665Z,8.20
2023-01-17T14:37:32.338Z,9.50
2023-01-17T14:40:01.016Z,11.70
2023-01-17T14:42:32.508Z,10.30
2023-01-17T14:45:12.887Z,12.30
2023-01-17T14:47:44.240Z,13.50
2023-01-17T14:50:17.905Z,40.00
2023-01-17T14:52:45.746Z,19.30
2023-01-17T14:55:18.632Z,35.20
2023-01-17T14:57:55.499Z,17.10
2023-01-17T15:00:28.573Z,21.00
2023-01-17T15:03:11.834Z,19.80
2023-01-17T15:05:45.001Z,19.00
2023-01-17T15:08:18.333Z,27.50
2023-01-17T15:10:59.874Z,33.10
2023-01-17T15:13:44.255Z,23.70
2023-01-17T15:16:38.260Z,19.60
2023-01-17T15:19:14.636Z,19.10
2023-01-17T15:21:45.285Z,16.20
2023-01-17T15:24:36.604Z,15.80
2023-01-17T15:27:05.764Z,16.40
2023-01-17T15:29:35.169Z,18.60
2023-01-17T15:32:06.432Z,20.70
2023-01-17T15:34:44.051Z,21.30
2023-01-17T15:37:41.287Z,21.80
2023-01-17T15:40:23.904Z,21.60
2023-01-17T15:42:57.860Z,26.60
2023-01-17T15:45:29.863Z,34.90
2023-01-17T15:49:00.736Z,36.50
2023-01-17T15:51:36.420Z,33.60
2023-01-17T15:54:28.361Z,35.60
2023-01-17T15:57:36.572Z,32.00
2023-01-17T16:00:17.982Z,34.10
2023-01-17T16:03:00.385Z,36.20
2023-01-17T16:08:04.428Z,41.10
2023-01-17T16:10:36.551Z,39.20
2023-01-17T16:15:36.320Z,42.40
2023-01-17T16:18:15.039Z,45.70
2023-01-17T16:20:53.486Z,44.30
2023-01-17T16:23:21.269Z,44.20
2023-01-17T16:25:49.014Z,34.90
2023-01-17T16:28:16.764Z,40.10
2023-01-17T16:30:45.643Z,40.90
2023-01-17T16:33:14.520Z,41.20
2023-01-17T16:35:42.463Z,37.90
2023-01-17T16:38:14.899Z,35.30
2023-01-17T16:40:45.783Z,31.70
2023-01-17T16:43:16.738Z,30.50
2023-01-17T16:45:53.402Z,28.50
2023-01-17T16:48:23.240Z,24.90
2023-01-17T16:50:52.389Z,26.80
2023-01-17T16:53:25.627Z,25.80
2023-01-17T16:56:04.916Z,26.60
2023-01-17T16:58:32.757Z,28.30
2023-01-17T17:01:02.051Z,22.70
2023-01-17T17:03:30.238Z,21.90
2023-01-17T17:06:01.330Z,24.40
2023-01-17T17:08:29.399Z,24.10
2023-01-17T17:11:32.854Z,21.50
2023-01-17T17:14:01.552Z,17.30
2023-01-17T17:16:30.080Z,19.30
2023-01-17T17:19:05.599Z,25.80
2023-01-17T17:21:36.943Z,27.90
2023-01-17T17:24:05.246Z,28.70
2023-01-17T17:26:36.447Z,31.10
2023-01-17T17:29:09.738Z,33.10
2023-01-17T17:31:42.054Z,31.90
2023-01-17T17:34:12.165Z,34.30
2023-01-17T17:36:41.312Z,41.80
2023-01-17T17:39:16.753Z,48.10
2023-01-17T17:41:45.719Z,49.00
2023-01-17T17:44:13.782Z,57.90
2023-01-17T17:46:42.494Z,66.20
2023-01-17T17:49:10.283Z,71.10
2023-01-17T17:51:40.235Z,85.50
2023-01-17T17:54:12.267Z,88.90
2023-01-17T17:56:45.741Z,92.70
2023-01-17T17:59:17.651Z,93.10
2023-01-17T18:01:47.232Z,121.60
2023-01-17T18:04:15.350Z,80.00
2023-01-17T18:06:44.043Z,79.70
2023-01-17T18:09:14.392Z,75.50
2023-01-17T18:11:43.636Z,64.30
2023-01-17T18:14:14.637Z,79.10
2023-01-17T18:16:44.859Z,70.70
2023-01-17T18:19:20.646Z,74.10
2023-01-17T18:21:50.818Z,71.60
2023-01-17T18:24:22.341Z,71.40
2023-01-17T18:26:57.243Z,72.60
2023-01-17T18:29:27.153Z,69.60
2023-01-17T18:31:56.014Z,69.20
2023-01-17T18:34:28.686Z,55.10
2023-01-17T18:36:57.479Z,63.60
2023-01-17T18:39:29.039Z,68.70
2023-01-17T18:41:57.693Z,80.20
2023-01-17T18:44:26.880Z,76.90
2023-01-17T18:46:57.498Z,65.90
2023-01-17T18:49:25.322Z,76.20
2023-01-17T18:51:53.243Z,65.10
2023-01-17T18:54:21.595Z,55.40
2023-01-17T18:56:50.546Z,54.80
2023-01-17T18:59:19.082Z,50.50
2023-01-17T19:01:47.102Z,50.90
2023-01-17T19:04:16.636Z,51.80
2023-01-17T19:06:48.987Z,52.00
2023-01-17T19:11:46.957Z,69.80
2023-01-17T19:14:15.264Z,92.60
2023-01-17T19:16:43.459Z,98.20
2023-01-17T19:19:14.846Z,101.60
2023-01-17T19:21:42.863Z,101.50
2023-01-17T19:24:14.988Z,75.20
2023-01-17T19:26:44.917Z,76.50
2023-01-17T19:29:13.649Z,79.30
2023-01-17T19:31:42.621Z,79.00
2023-01-17T19:34:18.291Z,75.60
2023-01-17T19:36:46.617Z,79.80
2023-01-17T19:39:14.604Z,93.80
2023-01-17T19:41:45.875Z,91.00
2023-01-17T19:44:14.496Z,109.60
2023-01-17T19:46:43.582Z,123.80
2023-01-17T19:49:11.664Z,111.30
2023-01-17T19:51:39.681Z,96.70
2023-01-17T19:54:07.736Z,95.80
2023-01-17T19:56:35.676Z,104.70
2023-01-17T19:59:03.585Z,114.20
2023-01-17T20:01:33.629Z,126.30
2023-01-17T20:04:03.667Z,142.60
2023-01-17T20:06:36.361Z,139.60
2023-01-17T20:09:06.466Z,142.80
2023-01-17T20:11:34.551Z,145.70
2023-01-17T20:14:06.953Z,147.30
2023-01-17T20:16:54.892Z,148.10
2023-01-17T20:19:24.521Z,143.90
2023-01-17T20:21:53.381Z,130.50
2023-01-17T20:24:23.837Z,137.90
2023-01-17T20:26:57.544Z,124.30
2023-01-17T20:29:26.673Z,137.90
2023-01-17T20:31:54.569Z,129.50
2023-01-17T20:34:25.205Z,118.40
2023-01-17T20:36:58.663Z,120.00
2023-01-17T20:39:27.024Z,133.00
2023-01-17T20:41:55.514Z,133.50
2023-01-17T20:44:23.479Z,135.50
2023-01-17T20:46:51.379Z,110.50
2023-01-17T20:49:19.680Z,114.50
2023-01-17T20:51:47.846Z,113.90
2023-01-17T20:54:18.491Z,117.30
2023-01-17T20:56:47.188Z,121.70
2023-01-17T20:59:19.208Z,134.60
2023-01-17T21:01:49.660Z,127.30
2023-01-17T21:04:24.930Z,135.90
2023-01-17T21:06:52.891Z,134.40
2023-01-17T21:09:21.405Z,134.70
2023-01-17T21:11:51.503Z,140.60
2023-01-17T21:14:21.072Z,137.30
2023-01-17T21:16:49.705Z,134.40
2023-01-17T21:19:17.608Z,142.40
2023-01-17T21:21:45.652Z,111.70
2023-01-17T21:24:18.462Z,119.20
2023-01-17T21:26:46.698Z,114.80
2023-01-17T21:29:15.447Z,116.00
2023-01-17T21:31:44.653Z,139.90
2023-01-17T21:34:13.116Z,135.20
2023-01-17T21:36:42.803Z,125.30
2023-01-17T21:39:19.212Z,125.70
2023-01-17T21:41:50.249Z,127.40
2023-01-17T21:44:21.489Z,127.00
2023-01-17T21:46:56.179Z,119.10
2023-01-17T21:49:24.570Z,123.30
2023-01-17T21:51:52.590Z,120.30
2023-01-17T21:54:42.701Z,121.10
2023-01-17T21:57:39.240Z,121.50
2023-01-17T22:00:13.967Z,119.30
2023-01-17T22:02:45.841Z,118.30
2023-01-17T22:05:15.955Z,127.00
2023-01-17T22:08:04.797Z,127.60
2023-01-17T22:10:43.788Z,124.50
2023-01-17T22:13:17.205Z,119.30
2023-01-17T22:15:45.793Z,140.90
2023-01-17T22:18:14.658Z,134.60
2023-01-17T22:20:42.534Z,122.90
2023-01-17T22:23:12.550Z,127.10
2023-01-17T22:25:40.566Z,122.60
2023-01-17T22:28:08.731Z,126.00
2023-01-17T22:30:37.095Z,119.20
2023-01-17T22:33:05.469Z,116.10
2023-01-17T22:35:33.897Z,97.70
2023-01-17T22:38:11.912Z,102.50
2023-01-17T22:40:41.881Z,109.20
2023-01-17T22:43:12.193Z,107.70
2023-01-17T22:45:42.795Z,105.00
2023-01-17T22:48:10.820Z,107.40
2023-01-17T22:50:38.960Z,103.10
2023-01-17T22:53:07.830Z,100.30
2023-01-17T22:55:35.930Z,72.50
2023-01-17T22:58:04.103Z,79.50
2023-01-17T23:00:32.167Z,76.00
2023-01-17T23:03:00.598Z,73.70
2023-01-17T23:05:28.833Z,73.50
2023-01-17T23:07:56.675Z,78.60
2023-01-17T23:10:43.517Z,83.90
2023-01-17T23:13:15.878Z,87.80
2023-01-17T23:16:02.113Z,84.90
2023-01-17T23:18:48.111Z,83.90
2023-01-17T23:21:15.977Z,81.40
2023-01-17T23:23:43.931Z,85.20
2023-01-17T23:26:12.010Z,91.50
2023-01-17T23:28:40.094Z,90.70
2023-01-17T23:31:10.340Z,108.20
2023-01-17T23:33:38.281Z,170.90
2023-01-17T23:36:08.720Z,106.70
2023-01-17T23:38:40.231Z,91.70
2023-01-17T23:41:27.119Z,83.10
2023-01-17T23:43:58.450Z,77.80
2023-01-17T23:46:28.086Z,84.40
2023-01-17T23:48:55.996Z,82.10
2023-01-17T23:51:23.939Z,84.90
2023-01-17T23:53:56.691Z,87.20
2023-01-17T23:56:24.677Z,85.40
2023-01-17T23:58:52.739Z,82.30
